createdAt,value
2023-01-27T00:02:23.495Z,1.20
2023-01-27T00:04:52.660Z,1.10
2023-01-27T00:07:19.213Z,1.10
2023-01-27T00:09:45.923Z,1.10
2023-01-27T00:12:42.363Z,1.20
2023-01-27T00:15:14.969Z,1.20
2023-01-27T00:17:42.213Z,1.20
2023-01-27T00:20:11.266Z,1.30
2023-01-27T00:22:56.920Z,1.30
2023-01-27T00:25:23.454Z,1.30
2023-01-27T00:27:50.115Z,1.40
2023-01-27T00:30:17.887Z,1.20
2023-01-27T00:33:04.407Z,1.30
2023-01-27T00:35:30.970Z,1.20
2023-01-27T00:37:58.372Z,1.20
2023-01-27T00:40:26.373Z,1.20
2023-01-27T00:42:53.783Z,1.20
2023-01-27T00:45:39.547Z,1.10
2023-01-27T00:48:08.120Z,1.20
2023-01-27T00:50:35.839Z,1.00
2023-01-27T00:53:06.642Z,1.10
2023-01-27T00:55:33.938Z,1.00
2023-01-27T00:58:00.693Z,1.20
2023-01-27T01:00:29.362Z,1.20
2023-01-27T01:02:56.546Z,1.10
2023-01-27T01:05:23.485Z,1.10
2023-01-27T01:07:50.299Z,1.10
2023-01-27T01:10:17.584Z,1.00
2023-01-27T01:12:44.411Z,1.10
2023-01-27T01:15:11.675Z,1.20
2023-01-27T01:17:38.684Z,1.00
2023-01-27T01:20:06.230Z,1.10
2023-01-27T01:22:33.031Z,1.20
2023-01-27T01:24:59.740Z,1.20
2023-01-27T01:27:26.472Z,1.20
2023-01-27T01:29:53.355Z,1.20
2023-01-27T01:32:21.695Z,1.10
2023-01-27T01:34:48.311Z,1.20
2023-01-27T01:37:15.061Z,1.20
2023-01-27T01:39:41.768Z,1.20
2023-01-27T01:42:08.558Z,1.30
2023-01-27T01:44:35.553Z,1.40
2023-01-27T01:47:02.343Z,1.40
2023-01-27T01:49:36.841Z,1.30
2023-01-27T01:52:09.824Z,1.30
2023-01-27T01:54:42.219Z,1.20
2023-01-27T01:57:14.994Z,1.20
2023-01-27T01:59:46.255Z,1.30
2023-01-27T02:02:17.633Z,1.40
2023-01-27T02:04:54.957Z,1.30
2023-01-27T02:07:27.691Z,1.30
2023-01-27T02:09:57.089Z,1.20
2023-01-27T02:12:24.004Z,1.20
2023-01-27T02:14:58.556Z,1.40
2023-01-27T02:17:25.309Z,1.40
2023-01-27T02:20:27.622Z,1.40
2023-01-27T02:23:21.717Z,1.40
2023-01-27T02:26:08.955Z,1.40
2023-01-27T02:28:35.655Z,1.60
2023-01-27T02:31:02.578Z,1.40
2023-01-27T02:33:29.493Z,1.40
2023-01-27T02:36:15.691Z,1.40
2023-01-27T02:39:03.233Z,1.40
2023-01-27T02:41:35.258Z,1.50
2023-01-27T02:44:02.236Z,1.40
2023-01-27T02:46:29.272Z,1.50
2023-01-27T02:48:56.161Z,1.50
2023-01-27T02:51:23.054Z,1.30
2023-01-27T02:53:51.837Z,1.50
2023-01-27T02:56:21.163Z,1.60
2023-01-27T02:58:48.114Z,1.50
2023-01-27T03:01:17.368Z,1.60
2023-01-27T03:03:44.354Z,1.60
2023-01-27T03:06:13.663Z,1.60
2023-01-27T03:08:41.264Z,1.60
2023-01-27T03:11:08.679Z,1.70
2023-01-27T03:13:37.783Z,1.70
2023-01-27T03:16:26.263Z,1.50
2023-01-27T03:18:56.785Z,1.70
2023-01-27T03:21:23.530Z,1.80
2023-01-27T03:23:50.531Z,1.60
2023-01-27T03:26:17.370Z,1.60
2023-01-27T03:28:44.773Z,1.60
2023-01-27T03:31:31.173Z,1.50
2023-01-27T03:33:58.192Z,1.40
2023-01-27T03:36:44.391Z,1.40
2023-01-27T03:39:38.173Z,1.30
2023-01-27T03:42:23.552Z,1.40
2023-01-27T03:45:08.860Z,1.40
2023-01-27T03:47:36.225Z,1.30
2023-01-27T03:50:02.987Z,1.30
2023-01-27T03:52:30.561Z,1.20
2023-01-27T03:54:57.486Z,1.30
2023-01-27T04:00:09.327Z,1.20
2023-01-27T04:02:57.519Z,1.30
2023-01-27T04:05:43.468Z,1.30
2023-01-27T04:08:10.377Z,1.20
2023-01-27T04:10:37.403Z,1.40
2023-01-27T04:13:04.057Z,1.40
2023-01-27T04:15:30.608Z,1.40
2023-01-27T04:18:01.167Z,1.30
2023-01-27T04:20:29.105Z,1.40
2023-01-27T04:22:57.938Z,1.30
2023-01-27T04:25:27.198Z,1.40
2023-01-27T04:27:54.008Z,1.30
2023-01-27T04:30:21.503Z,1.30
2023-01-27T04:32:48.123Z,1.40
2023-01-27T04:35:16.584Z,1.50
2023-01-27T04:37:43.838Z,1.50
2023-01-27T04:40:11.205Z,1.60
2023-01-27T04:42:40.200Z,1.40
2023-01-27T04:45:07.678Z,1.30
2023-01-27T04:47:34.713Z,1.40
2023-01-27T04:50:01.684Z,1.50
2023-01-27T04:52:28.448Z,1.20
2023-01-27T04:54:55.255Z,1.30
2023-01-27T04:57:22.110Z,1.30
2023-01-27T04:59:50.212Z,1.30
2023-01-27T05:02:17.369Z,1.40
2023-01-27T05:04:44.321Z,1.40
2023-01-27T05:07:11.093Z,1.40
2023-01-27T05:09:37.698Z,1.40
2023-01-27T05:12:04.908Z,1.40
2023-01-27T05:14:31.851Z,1.40
2023-01-27T05:16:58.656Z,1.30
2023-01-27T05:19:25.817Z,1.50
2023-01-27T05:21:52.559Z,1.50
2023-01-27T05:24:21.000Z,1.40
2023-01-27T05:26:48.387Z,1.50
2023-01-27T05:29:16.367Z,1.60
2023-01-27T05:31:45.329Z,1.50
2023-01-27T05:34:12.063Z,1.50
2023-01-27T05:36:39.497Z,1.70
2023-01-27T05:39:08.814Z,1.70
2023-01-27T05:41:35.779Z,1.70
2023-01-27T05:44:03.553Z,1.60
2023-01-27T05:46:33.341Z,1.70
2023-01-27T05:49:01.777Z,1.70
2023-01-27T05:51:34.267Z,1.80
2023-01-27T05:54:02.165Z,1.60
2023-01-27T05:56:29.660Z,1.60
2023-01-27T05:58:57.741Z,1.50
2023-01-27T06:01:27.080Z,1.70
2023-01-27T06:03:54.004Z,1.60
2023-01-27T06:06:22.680Z,1.70
2023-01-27T06:08:50.110Z,1.70
2023-01-27T06:11:21.299Z,1.80
2023-01-27T06:13:48.904Z,1.90
2023-01-27T06:16:18.530Z,1.80
2023-01-27T06:18:45.325Z,1.70
2023-01-27T06:21:13.113Z,1.70
2023-01-27T06:23:40.586Z,1.70
2023-01-27T06:26:16.588Z,1.80
2023-01-27T06:28:43.318Z,1.70
2023-01-27T06:31:28.958Z,1.60
2023-01-27T06:33:55.872Z,1.60
2023-01-27T06:36:22.652Z,1.50
2023-01-27T06:38:50.794Z,1.40
2023-01-27T06:41:17.635Z,1.60
2023-01-27T06:43:44.473Z,1.70
2023-01-27T06:46:13.378Z,1.60
2023-01-27T06:48:40.408Z,1.70
2023-01-27T06:51:07.172Z,1.70
2023-01-27T06:53:35.137Z,1.80
2023-01-27T06:56:02.328Z,1.70
2023-01-27T06:58:29.610Z,1.70
2023-01-27T07:00:57.374Z,1.70
2023-01-27T07:03:24.628Z,1.80
2023-01-27T07:05:52.865Z,1.90
2023-01-27T07:08:19.559Z,1.80
2023-01-27T07:10:46.200Z,1.80
2023-01-27T07:13:15.138Z,1.90
2023-01-27T07:15:42.488Z,1.90
2023-01-27T07:18:11.773Z,1.90
2023-01-27T07:20:38.409Z,1.90
2023-01-27T07:23:06.941Z,1.90
2023-01-27T07:25:36.055Z,2.00
2023-01-27T07:28:04.196Z,1.90
2023-01-27T07:30:34.089Z,2.00
2023-01-27T07:33:07.940Z,2.00
2023-01-27T07:35:36.716Z,2.10
2023-01-27T07:38:05.154Z,2.20
2023-01-27T07:40:32.944Z,2.20
2023-01-27T07:43:00.862Z,2.20
2023-01-27T07:45:29.381Z,2.20
2023-01-27T07:48:06.417Z,2.20
2023-01-27T07:50:34.292Z,2.30
2023-01-27T07:53:02.496Z,2.30
2023-01-27T07:55:30.538Z,2.50
2023-01-27T07:57:58.071Z,2.50
2023-01-27T08:00:26.133Z,2.60
2023-01-27T08:02:54.302Z,2.60
2023-01-27T08:05:22.574Z,2.60
2023-01-27T08:07:54.458Z,2.50
2023-01-27T08:10:21.774Z,2.60
2023-01-27T08:12:48.821Z,2.70
2023-01-27T08:15:18.872Z,2.70
2023-01-27T08:17:55.574Z,2.70
2023-01-27T08:20:24.403Z,2.80
2023-01-27T08:22:51.623Z,2.80
2023-01-27T08:25:18.387Z,2.90
2023-01-27T08:27:46.033Z,2.90
2023-01-27T08:30:13.210Z,3.00
2023-01-27T08:32:39.925Z,2.90
2023-01-27T08:35:06.784Z,3.00
2023-01-27T08:37:33.282Z,3.00
2023-01-27T08:40:00.010Z,3.10
2023-01-27T08:42:26.829Z,3.10
2023-01-27T08:44:53.440Z,3.20
2023-01-27T08:47:20.306Z,3.20
2023-01-27T08:49:48.646Z,3.30
2023-01-27T08:52:15.187Z,3.40
2023-01-27T08:54:41.872Z,3.40
2023-01-27T08:57:08.977Z,3.50
2023-01-27T08:59:35.494Z,3.40
2023-01-27T09:02:02.416Z,3.40
2023-01-27T09:04:30.534Z,3.50
2023-01-27T09:06:58.027Z,3.40
2023-01-27T09:09:24.772Z,3.50
2023-01-27T09:11:51.345Z,3.60
2023-01-27T09:14:20.543Z,3.60
2023-01-27T09:17:00.773Z,3.60
2023-01-27T09:19:29.118Z,3.60
2023-01-27T09:21:56.879Z,3.70
2023-01-27T09:24:26.401Z,3.60
2023-01-27T09:27:05.366Z,3.50
2023-01-27T09:29:32.513Z,3.60
2023-01-27T09:32:07.099Z,3.60
2023-01-27T09:34:37.293Z,3.40
2023-01-27T09:37:10.308Z,3.50
2023-01-27T09:39:52.669Z,3.60
2023-01-27T09:42:39.282Z,3.70
2023-01-27T09:45:23.968Z,3.80
2023-01-27T09:48:10.836Z,3.70
2023-01-27T09:50:52.540Z,3.80
2023-01-27T09:53:33.473Z,3.70
2023-01-27T09:56:32.165Z,3.80
2023-01-27T09:59:26.728Z,3.70
2023-01-27T10:02:20.151Z,3.80
2023-01-27T10:05:12.351Z,3.80
2023-01-27T10:08:24.973Z,4.00
2023-01-27T10:11:17.705Z,3.90
2023-01-27T10:14:11.091Z,4.00
2023-01-27T10:17:05.848Z,4.00
2023-01-27T10:20:02.838Z,4.00
2023-01-27T10:29:23.329Z,3.90
2023-01-27T10:32:37.626Z,4.00
2023-01-27T10:35:41.902Z,4.10
2023-01-27T10:38:20.447Z,4.00
2023-01-27T10:41:20.758Z,4.00
2023-01-27T10:44:29.078Z,3.90
2023-01-27T10:50:48.123Z,4.00
2023-01-27T10:53:53.077Z,4.10
2023-01-27T10:56:28.021Z,4.10
2023-01-27T10:59:22.570Z,4.20
2023-01-27T11:02:11.767Z,4.20
2023-01-27T11:04:49.618Z,4.20
2023-01-27T11:07:20.259Z,4.20
2023-01-27T11:09:53.879Z,4.20
2023-01-27T11:12:28.553Z,4.10
2023-01-27T11:14:55.300Z,4.10
2023-01-27T11:17:55.083Z,4.10
2023-01-27T11:20:31.443Z,4.10
2023-01-27T11:23:09.999Z,4.30
2023-01-27T11:26:15.588Z,4.30
2023-01-27T11:29:13.501Z,4.50
2023-01-27T11:31:54.253Z,4.50
2023-01-27T11:34:36.437Z,4.10
2023-01-27T11:37:17.883Z,4.20
2023-01-27T11:39:44.512Z,4.20
2023-01-27T11:42:13.821Z,4.30
2023-01-27T11:44:43.882Z,4.30
2023-01-27T11:47:34.892Z,4.20
2023-01-27T11:50:01.980Z,4.30
2023-01-27T11:52:30.317Z,4.40
2023-01-27T11:55:36.283Z,4.50
2023-01-27T11:58:39.098Z,4.50
2023-01-27T12:01:18.131Z,4.50
2023-01-27T12:04:07.332Z,4.30
2023-01-27T12:07:04.799Z,4.20
2023-01-27T12:09:38.071Z,4.20
2023-01-27T12:12:14.637Z,4.40
2023-01-27T12:14:53.638Z,4.30
2023-01-27T12:17:42.055Z,4.30
2023-01-27T12:20:30.893Z,4.40
2023-01-27T12:23:01.497Z,4.50
2023-01-27T12:25:50.611Z,4.40
2023-01-27T12:28:25.487Z,4.30
2023-01-27T12:30:59.824Z,4.40
2023-01-27T12:33:36.640Z,4.30
2023-01-27T12:36:12.632Z,4.50
2023-01-27T12:38:45.984Z,4.50
2023-01-27T12:41:21.945Z,4.50
2023-01-27T12:44:16.266Z,4.40
2023-01-27T12:47:11.942Z,4.40
2023-01-27T12:49:41.079Z,4.30
2023-01-27T12:52:19.400Z,4.30
2023-01-27T12:54:47.347Z,4.20
2023-01-27T12:57:20.991Z,4.10
2023-01-27T12:59:52.239Z,4.10
2023-01-27T13:02:25.509Z,4.30
2023-01-27T13:04:57.886Z,4.10
2023-01-27T13:07:37.079Z,4.20
2023-01-27T13:10:19.469Z,4.40
2023-01-27T13:13:03.106Z,4.30
2023-01-27T13:18:22.203Z,4.40
2023-01-27T13:20:55.451Z,4.40
2023-01-27T13:23:34.835Z,4.30
2023-01-27T13:26:06.603Z,4.20
2023-01-27T13:28:52.201Z,4.20
2023-01-27T13:31:29.836Z,4.30
2023-01-27T13:34:10.321Z,4.50
2023-01-27T13:36:46.297Z,4.60
2023-01-27T13:39:25.472Z,4.40
2023-01-27T13:42:06.956Z,4.60
2023-01-27T13:44:42.276Z,4.60
2023-01-27T13:47:22.212Z,4.70
2023-01-27T13:49:57.498Z,4.70
2023-01-27T13:52:25.729Z,4.90
2023-01-27T13:54:53.427Z,4.80
2023-01-27T13:57:42.246Z,4.90
2023-01-27T14:00:24.732Z,4.90
2023-01-27T14:03:08.138Z,4.90
2023-01-27T14:05:58.333Z,4.60
2023-01-27T14:08:42.952Z,4.50
2023-01-27T14:11:26.674Z,4.60
2023-01-27T14:14:18.291Z,4.70
2023-01-27T14:16:46.583Z,4.70
2023-01-27T14:25:38.833Z,4.50
2023-01-27T14:28:28.341Z,4.60
2023-01-27T14:31:17.571Z,4.50
2023-01-27T14:33:57.766Z,4.40
2023-01-27T14:36:43.405Z,4.50
2023-01-27T14:39:30.805Z,4.40
2023-01-27T14:42:12.663Z,4.50
2023-01-27T14:45:04.410Z,4.50
2023-01-27T14:47:53.292Z,4.30
2023-01-27T14:50:27.497Z,4.50
2023-01-27T14:53:37.195Z,4.30
2023-01-27T14:56:24.181Z,4.30
2023-01-27T14:59:00.197Z,4.30
2023-01-27T15:01:45.038Z,4.30
2023-01-27T15:04:19.594Z,4.20
2023-01-27T15:07:15.641Z,4.10
2023-01-27T15:10:04.780Z,4.10
2023-01-27T15:12:53.009Z,4.10
2023-01-27T15:15:53.239Z,4.10
2023-01-27T15:18:56.001Z,4.10
2023-01-27T15:22:04.419Z,4.20
2023-01-27T15:24:53.007Z,4.20
2023-01-27T15:27:21.156Z,4.20
2023-01-27T15:29:49.073Z,4.10
2023-01-27T15:32:15.693Z,4.20
2023-01-27T15:34:47.268Z,4.10
2023-01-27T15:37:29.744Z,4.10
2023-01-27T15:40:06.682Z,4.10
2023-01-27T15:43:02.913Z,4.20
2023-01-27T15:45:35.371Z,4.00
2023-01-27T15:48:13.922Z,3.80
2023-01-27T15:50:49.513Z,3.90
2023-01-27T15:53:22.600Z,4.00
2023-01-27T15:55:53.387Z,3.90
2023-01-27T15:58:32.440Z,3.90
2023-01-27T16:01:00.235Z,3.90
2023-01-27T16:03:44.207Z,3.90
2023-01-27T16:06:22.663Z,3.90
2023-01-27T16:09:08.196Z,3.80
2023-01-27T16:11:37.395Z,3.90
2023-01-27T16:14:13.014Z,3.80
2023-01-27T16:16:51.901Z,3.90
2023-01-27T16:19:28.022Z,4.00
2023-01-27T16:21:59.956Z,3.80
2023-01-27T16:24:33.657Z,3.90
2023-01-27T16:27:42.973Z,3.80
2023-01-27T16:30:28.501Z,3.70
2023-01-27T16:33:09.005Z,3.60
2023-01-27T16:35:47.937Z,3.50
2023-01-27T16:38:22.255Z,3.40
2023-01-27T16:40:54.255Z,3.20
2023-01-27T16:43:27.621Z,3.10
2023-01-27T16:45:58.429Z,2.90
2023-01-27T16:48:30.879Z,2.90
2023-01-27T16:51:26.198Z,2.70
2023-01-27T16:53:54.885Z,2.70
2023-01-27T16:56:34.595Z,2.50
2023-01-27T16:59:11.154Z,2.50
2023-01-27T17:01:46.794Z,2.50
2023-01-27T17:04:20.685Z,2.50
2023-01-27T17:06:48.744Z,2.30
2023-01-27T17:09:27.815Z,2.20
2023-01-27T17:11:55.848Z,2.20
2023-01-27T17:14:35.285Z,2.10
2023-01-27T17:17:16.909Z,1.90
2023-01-27T17:19:47.651Z,1.80
2023-01-27T17:22:24.314Z,1.80
2023-01-27T17:24:54.877Z,1.80
2023-01-27T17:27:37.027Z,1.80
2023-01-27T17:30:19.203Z,1.80
2023-01-27T17:32:55.089Z,1.80
2023-01-27T17:35:22.227Z,1.90
2023-01-27T17:37:49.357Z,1.70
2023-01-27T17:40:21.090Z,1.60
2023-01-27T17:42:48.878Z,1.40
2023-01-27T17:45:22.630Z,1.40
2023-01-27T17:47:51.742Z,1.20
2023-01-27T17:50:25.491Z,1.10
2023-01-27T17:52:54.189Z,1.20
2023-01-27T17:55:31.565Z,1.00
2023-01-27T17:58:16.972Z,1.00
2023-01-27T18:00:46.435Z,0.90
2023-01-27T18:03:24.003Z,0.80
2023-01-27T18:05:54.001Z,0.80
2023-01-27T18:08:26.373Z,0.80
2023-01-27T18:11:13.017Z,0.70
2023-01-27T18:13:44.956Z,0.60
2023-01-27T18:16:28.462Z,0.60
2023-01-27T18:19:25.774Z,0.50
2023-01-27T18:22:06.983Z,0.50
2023-01-27T18:24:39.940Z,0.60
2023-01-27T18:27:50.047Z,0.70
2023-01-27T18:30:24.334Z,0.60
2023-01-27T18:33:02.432Z,0.60
2023-01-27T18:35:45.390Z,0.50
2023-01-27T18:38:38.938Z,0.60
2023-01-27T18:41:33.442Z,0.60
2023-01-27T18:44:03.544Z,0.70
2023-01-27T18:46:44.470Z,0.90
2023-01-27T18:49:14.221Z,0.90
2023-01-27T18:51:41.675Z,0.80
2023-01-27T18:54:12.650Z,0.90
2023-01-27T18:56:39.510Z,1.00
2023-01-27T18:59:13.962Z,0.90
2023-01-27T19:01:42.884Z,0.90
2023-01-27T19:04:14.755Z,1.00
2023-01-27T19:06:47.766Z,1.00
2023-01-27T19:09:31.145Z,1.00
2023-01-27T19:12:02.377Z,1.10
2023-01-27T19:14:39.072Z,1.10
2023-01-27T19:20:19.523Z,1.10
2023-01-27T19:22:47.476Z,1.20
2023-01-27T19:25:14.825Z,1.20
2023-01-27T19:33:33.008Z,1.20
2023-01-27T19:36:04.909Z,1.20
2023-01-27T19:38:36.049Z,1.20
2023-01-27T19:41:02.852Z,1.20
2023-01-27T19:43:37.380Z,1.30
2023-01-27T19:46:21.059Z,1.30
2023-01-27T19:48:51.668Z,1.30
2023-01-27T19:51:21.759Z,1.40
2023-01-27T19:53:52.679Z,1.40
2023-01-27T19:56:25.323Z,1.30
2023-01-27T19:58:55.035Z,1.30
2023-01-27T20:01:24.901Z,1.30
2023-01-27T20:03:57.974Z,1.20
2023-01-27T20:06:29.575Z,1.30
2023-01-27T20:09:02.395Z,1.30
2023-01-27T20:11:40.623Z,1.40
2023-01-27T20:14:19.511Z,1.20
2023-01-27T20:16:46.909Z,1.40
2023-01-27T20:19:17.249Z,1.30
2023-01-27T20:21:59.247Z,1.30
2023-01-27T20:24:26.119Z,1.50
2023-01-27T20:26:57.334Z,1.30
2023-01-27T20:29:26.843Z,1.40
2023-01-27T20:32:04.552Z,1.40
2023-01-27T20:34:31.818Z,1.30
2023-01-27T20:36:58.463Z,1.40
2023-01-27T20:39:25.710Z,1.40
2023-01-27T20:41:53.119Z,1.40
2023-01-27T20:44:20.199Z,1.40
2023-01-27T20:47:11.222Z,1.40
2023-01-27T20:49:46.048Z,1.40
2023-01-27T20:52:22.677Z,1.50
2023-01-27T20:54:59.961Z,1.40
2023-01-27T20:57:30.756Z,1.50
2023-01-27T21:02:49.427Z,1.40
2023-01-27T21:08:34.918Z,1.40
2023-01-27T21:11:03.705Z,1.40
2023-01-27T21:13:34.025Z,1.30
2023-01-27T21:19:06.124Z,1.20
2023-01-27T21:21:42.452Z,1.30
2023-01-27T21:29:59.051Z,1.30
2023-01-27T21:33:07.071Z,1.30
2023-01-27T21:35:37.969Z,1.20
2023-01-27T21:38:09.643Z,1.30
2023-01-27T21:52:34.114Z,1.10
2023-01-27T21:55:02.936Z,1.10
2023-01-27T21:58:00.207Z,1.10
2023-01-27T22:00:35.217Z,0.90
2023-01-27T22:03:25.222Z,1.00
2023-01-27T22:06:32.790Z,0.80
2023-01-27T22:08:59.684Z,0.70
2023-01-27T22:11:30.670Z,0.70
2023-01-27T22:14:00.421Z,0.60
2023-01-27T22:16:36.216Z,0.50
2023-01-27T22:19:03.613Z,0.50
2023-01-27T22:21:33.268Z,0.40
2023-01-27T22:24:01.054Z,0.30
2023-01-27T22:26:54.708Z,0.30
2023-01-27T22:29:32.424Z,0.30
2023-01-27T22:32:10.157Z,0.20
2023-01-27T22:34:47.182Z,0.20
2023-01-27T22:40:16.161Z,0.20
2023-01-27T22:49:45.209Z,0.10
2023-01-27T22:52:17.624Z,0.10
2023-01-27T23:00:14.931Z,-0.20
2023-01-27T23:02:42.026Z,-0.20
2023-01-27T23:05:18.019Z,-0.20
2023-01-27T23:10:29.077Z,-0.40
2023-01-27T23:12:56.254Z,-0.60
2023-01-27T23:15:23.280Z,-0.60
2023-01-27T23:17:50.076Z,-0.50
2023-01-27T23:20:20.072Z,-0.60
2023-01-27T23:22:47.421Z,-0.70
2023-01-27T23:25:15.544Z,-0.70
2023-01-27T23:27:44.030Z,-0.70
2023-01-27T23:30:11.643Z,-0.70
2023-01-27T23:32:40.027Z,-0.80
2023-01-27T23:35:07.317Z,-0.90
2023-01-27T23:37:34.888Z,-0.90
2023-01-27T23:40:01.906Z,-1.00
2023-01-27T23:42:28.705Z,-1.00
2023-01-27T23:44:55.708Z,-1.10
2023-01-27T23:47:23.675Z,-1.00
2023-01-27T23:49:52.077Z,-1.10
2023-01-27T23:52:18.687Z,-1.20
2023-01-27T23:54:45.380Z,-1.20
2023-01-27T23:57:11.978Z,-1.20
2023-01-27T23:59:38.721Z,-1.30
